createdAt,value
2023-12-08T00:00:01.464Z,0.08
2023-12-08T00:02:34.029Z,0.16
2023-12-08T00:05:02.268Z,0.19
2023-12-08T00:07:30.420Z,0.09
2023-12-08T00:09:59.002Z,0.17
2023-12-08T00:12:27.394Z,0.17
2023-12-08T00:14:55.941Z,0.19
2023-12-08T00:17:25.133Z,0.00
2023-12-08T00:19:55.042Z,-0.11
2023-12-08T00:22:23.201Z,0.17
2023-12-08T00:24:52.453Z,0.15
2023-12-08T00:27:21.030Z,0.16
2023-12-08T00:29:49.225Z,0.19
2023-12-08T00:32:17.828Z,0.19
2023-12-08T00:34:47.577Z,0.14
2023-12-08T00:37:17.789Z,0.07
2023-12-08T00:39:45.907Z,0.07
2023-12-08T00:42:14.172Z,0.06
2023-12-08T00:44:42.469Z,0.21
2023-12-08T00:47:10.619Z,0.16
2023-12-08T00:49:38.990Z,0.20
2023-12-08T00:52:07.664Z,0.22
2023-12-08T00:54:37.250Z,0.19
2023-12-08T00:57:05.949Z,0.18
2023-12-08T00:59:34.008Z,0.15
2023-12-08T01:02:02.329Z,0.25
2023-12-08T01:04:30.814Z,0.09
2023-12-08T01:06:58.960Z,0.19
2023-12-08T01:09:27.684Z,0.22
2023-12-08T01:11:57.550Z,0.24
2023-12-08T01:14:25.668Z,0.27
2023-12-08T01:16:54.146Z,0.23
2023-12-08T01:19:22.590Z,0.33
2023-12-08T01:21:50.975Z,0.29
2023-12-08T01:24:19.506Z,0.28
2023-12-08T01:26:48.315Z,0.33
2023-12-08T01:29:18.143Z,0.30
2023-12-08T01:31:46.898Z,0.34
2023-12-08T01:34:15.216Z,0.31
2023-12-08T01:36:44.491Z,0.36
2023-12-08T01:39:14.171Z,0.37
2023-12-08T01:41:42.832Z,0.40
2023-12-08T01:44:11.109Z,0.37
2023-12-08T01:46:41.014Z,0.41
2023-12-08T01:49:10.340Z,0.38
2023-12-08T01:51:38.843Z,0.35
2023-12-08T01:54:08.536Z,0.37
2023-12-08T01:56:37.167Z,0.40
2023-12-08T01:59:06.150Z,0.43
2023-12-08T02:01:36.431Z,0.46
2023-12-08T02:04:06.497Z,0.51
2023-12-08T02:06:35.643Z,0.52
2023-12-08T02:09:04.020Z,0.45
2023-12-08T02:11:32.536Z,0.54
2023-12-08T02:14:01.183Z,0.56
2023-12-08T02:16:35.893Z,0.61
2023-12-08T02:19:08.581Z,0.62
2023-12-08T02:21:37.765Z,0.65
2023-12-08T02:24:08.166Z,0.67
2023-12-08T02:26:37.215Z,0.75
2023-12-08T02:29:09.042Z,0.69
2023-12-08T02:31:40.912Z,0.73
2023-12-08T02:34:10.974Z,0.77
2023-12-08T02:36:40.692Z,0.77
2023-12-08T02:39:12.794Z,0.81
2023-12-08T02:41:40.937Z,0.81
2023-12-08T02:44:09.288Z,0.77
2023-12-08T02:46:37.435Z,0.82
2023-12-08T02:49:05.728Z,0.76
2023-12-08T02:51:34.200Z,0.85
2023-12-08T02:54:02.562Z,0.90
2023-12-08T02:56:32.298Z,0.90
2023-12-08T02:59:00.457Z,0.88
2023-12-08T03:01:28.729Z,0.92
2023-12-08T03:03:57.060Z,0.91
2023-12-08T03:06:25.242Z,1.01
2023-12-08T03:08:53.757Z,1.03
2023-12-08T03:11:22.032Z,1.07
2023-12-08T03:13:51.631Z,1.10
2023-12-08T03:16:20.032Z,1.11
2023-12-08T03:18:48.619Z,1.02
2023-12-08T03:21:23.737Z,1.07
2023-12-08T03:23:52.509Z,1.13
2023-12-08T03:26:21.720Z,0.93
2023-12-08T03:28:51.406Z,1.13
2023-12-08T03:31:27.711Z,1.12
2023-12-08T03:33:56.454Z,1.10
2023-12-08T03:36:24.793Z,1.07
2023-12-08T03:38:52.950Z,1.19
2023-12-08T03:41:21.148Z,1.19
2023-12-08T03:43:49.401Z,1.22
2023-12-08T03:46:19.394Z,1.19
2023-12-08T03:48:50.944Z,1.24
2023-12-08T03:51:20.575Z,1.22
2023-12-08T03:53:48.973Z,1.23
2023-12-08T03:56:17.045Z,1.13
2023-12-08T03:58:45.087Z,1.22
2023-12-08T04:01:19.975Z,1.22
2023-12-08T04:03:48.547Z,1.18
2023-12-08T04:06:16.880Z,1.26
2023-12-08T04:08:45.075Z,1.27
2023-12-08T04:11:13.257Z,1.37
2023-12-08T04:13:41.680Z,1.44
2023-12-08T04:16:10.701Z,1.41
2023-12-08T04:18:40.353Z,1.36
2023-12-08T04:21:08.758Z,1.40
2023-12-08T04:23:38.176Z,1.36
2023-12-08T04:26:08.879Z,1.35
2023-12-08T04:28:37.412Z,1.33
2023-12-08T04:31:05.893Z,1.28
2023-12-08T04:33:34.870Z,1.34
2023-12-08T04:36:04.686Z,1.30
2023-12-08T04:38:32.651Z,1.36
2023-12-08T04:41:00.909Z,1.32
2023-12-08T04:43:29.188Z,1.33
2023-12-08T04:45:57.422Z,1.33
2023-12-08T04:48:25.705Z,1.33
2023-12-08T04:50:53.897Z,1.24
2023-12-08T04:53:23.398Z,1.27
2023-12-08T04:55:51.399Z,1.28
2023-12-08T04:58:21.730Z,1.24
2023-12-08T05:00:53.026Z,1.02
2023-12-08T05:03:21.375Z,1.23
2023-12-08T05:05:50.217Z,1.16
2023-12-08T05:08:18.347Z,1.21
2023-12-08T05:10:47.920Z,1.19
2023-12-08T05:13:16.398Z,1.19
2023-12-08T05:15:45.012Z,1.20
2023-12-08T05:18:14.480Z,1.13
2023-12-08T05:20:43.083Z,1.11
2023-12-08T05:23:11.499Z,1.11
2023-12-08T05:25:39.720Z,1.07
2023-12-08T05:28:09.692Z,0.96
2023-12-08T05:30:37.936Z,1.02
2023-12-08T05:33:06.358Z,1.05
2023-12-08T05:35:34.763Z,1.04
2023-12-08T05:38:03.205Z,1.07
2023-12-08T05:40:31.327Z,1.04
2023-12-08T05:42:59.520Z,1.08
2023-12-08T05:45:28.988Z,1.12
2023-12-08T05:47:57.543Z,1.14
2023-12-08T05:50:25.642Z,1.02
2023-12-08T05:52:53.640Z,1.10
2023-12-08T05:55:21.969Z,0.98
2023-12-08T05:57:50.341Z,1.17
2023-12-08T06:00:20.268Z,1.19
2023-12-08T06:02:50.507Z,1.18
2023-12-08T06:05:19.621Z,1.16
2023-12-08T06:07:47.702Z,1.20
2023-12-08T06:10:15.848Z,1.15
2023-12-08T06:12:43.929Z,1.24
2023-12-08T06:15:13.239Z,1.23
2023-12-08T06:17:41.418Z,1.22
2023-12-08T06:20:12.677Z,1.30
2023-12-08T06:22:41.207Z,1.29
2023-12-08T06:25:10.510Z,1.26
2023-12-08T06:27:38.817Z,1.28
2023-12-08T06:30:09.799Z,1.30
2023-12-08T06:32:37.909Z,1.29
2023-12-08T06:35:06.631Z,1.26
2023-12-08T06:37:36.217Z,1.32
2023-12-08T06:40:05.846Z,1.35
2023-12-08T06:42:33.972Z,1.37
2023-12-08T06:45:01.977Z,1.32
2023-12-08T06:47:30.070Z,1.36
2023-12-08T06:49:58.584Z,1.44
2023-12-08T06:52:26.617Z,1.40
2023-12-08T06:54:55.956Z,1.42
2023-12-08T06:57:24.173Z,1.39
2023-12-08T06:59:54.518Z,1.40
2023-12-08T07:02:22.637Z,1.42
2023-12-08T07:04:50.921Z,1.39
2023-12-08T07:07:18.970Z,1.37
2023-12-08T07:09:47.172Z,1.30
2023-12-08T07:12:16.786Z,1.30
2023-12-08T07:14:44.874Z,1.32
2023-12-08T07:17:13.056Z,1.28
2023-12-08T07:19:42.511Z,1.22
2023-12-08T07:22:10.797Z,1.20
2023-12-08T07:24:39.162Z,1.21
2023-12-08T07:27:07.699Z,1.13
2023-12-08T07:29:37.445Z,1.15
2023-12-08T07:32:07.455Z,1.16
2023-12-08T07:34:35.469Z,1.14
2023-12-08T07:37:03.691Z,1.01
2023-12-08T07:39:31.936Z,1.02
2023-12-08T07:42:00.396Z,1.05
2023-12-08T07:44:28.435Z,1.06
2023-12-08T07:46:57.765Z,1.08
2023-12-08T07:49:26.063Z,1.14
2023-12-08T07:51:54.160Z,1.14
2023-12-08T07:54:22.183Z,1.15
2023-12-08T07:56:50.373Z,1.07
2023-12-08T07:59:18.631Z,1.05
2023-12-08T08:01:46.622Z,1.14
2023-12-08T08:04:16.117Z,1.13
2023-12-08T08:06:44.362Z,1.19
2023-12-08T08:09:12.470Z,1.15
2023-12-08T08:11:40.909Z,1.15
2023-12-08T08:14:08.949Z,1.13
2023-12-08T08:16:37.277Z,1.12
2023-12-08T08:19:05.327Z,1.13
2023-12-08T08:21:34.983Z,1.14
2023-12-08T08:24:03.420Z,1.14
2023-12-08T08:26:31.400Z,1.08
2023-12-08T08:28:59.442Z,1.10
2023-12-08T08:31:27.988Z,1.14
2023-12-08T08:33:56.358Z,1.17
2023-12-08T08:36:27.206Z,1.17
2023-12-08T08:38:56.584Z,1.14
2023-12-08T08:41:25.121Z,1.13
2023-12-08T08:43:53.320Z,1.24
2023-12-08T08:46:21.366Z,1.20
2023-12-08T08:48:49.858Z,1.21
2023-12-08T08:51:18.521Z,1.20
2023-12-08T08:53:46.917Z,1.23
2023-12-08T08:56:16.413Z,1.19
2023-12-08T08:58:44.512Z,1.24
2023-12-08T09:01:12.936Z,1.27
2023-12-08T09:03:41.311Z,1.21
2023-12-08T09:06:09.586Z,1.22
2023-12-08T09:08:38.487Z,1.24
2023-12-08T09:11:06.717Z,1.24
2023-12-08T09:13:36.208Z,1.19
2023-12-08T09:16:05.377Z,1.26
2023-12-08T09:18:33.586Z,1.20
2023-12-08T09:21:02.208Z,1.27
2023-12-08T09:23:30.415Z,1.26
2023-12-08T09:25:58.643Z,1.23
2023-12-08T09:28:26.890Z,1.15
2023-12-08T09:30:56.504Z,1.27
2023-12-08T09:33:25.635Z,1.25
2023-12-08T09:35:56.324Z,1.24
2023-12-08T09:38:31.445Z,1.30
2023-12-08T09:41:05.630Z,1.33
2023-12-08T09:43:43.199Z,1.30
2023-12-08T09:46:15.637Z,1.30
2023-12-08T09:48:47.170Z,1.36
2023-12-08T09:51:16.440Z,1.29
2023-12-08T09:53:47.160Z,1.32
2023-12-08T09:56:16.916Z,1.39
2023-12-08T09:58:47.161Z,1.38
2023-12-08T10:01:18.433Z,1.44
2023-12-08T10:03:46.945Z,1.44
2023-12-08T10:06:16.061Z,1.43
2023-12-08T10:08:45.384Z,1.43
2023-12-08T10:11:13.545Z,1.37
2023-12-08T10:13:41.954Z,1.47
2023-12-08T10:16:10.419Z,1.44
2023-12-08T10:18:40.122Z,1.48
2023-12-08T10:21:16.702Z,1.38
2023-12-08T10:23:45.945Z,1.52
2023-12-08T10:26:15.073Z,1.56
2023-12-08T10:28:44.039Z,1.56
2023-12-08T10:31:12.352Z,1.45
2023-12-08T10:33:43.448Z,1.45
2023-12-08T10:36:12.556Z,1.45
2023-12-08T10:38:41.509Z,1.51
2023-12-08T10:41:10.922Z,1.57
2023-12-08T10:43:40.756Z,1.67
2023-12-08T10:46:09.918Z,1.68
2023-12-08T10:48:38.870Z,1.54
2023-12-08T10:51:14.794Z,1.59
2023-12-08T10:53:45.594Z,1.73
2023-12-08T10:56:17.864Z,1.72
2023-12-08T10:58:51.418Z,1.68
2023-12-08T11:01:22.881Z,1.68
2023-12-08T11:04:03.818Z,1.72
2023-12-08T11:06:39.964Z,1.75
2023-12-08T11:09:10.844Z,1.78
2023-12-08T11:11:45.253Z,1.80
2023-12-08T11:14:19.130Z,1.79
2023-12-08T11:16:52.815Z,1.81
2023-12-08T11:19:24.585Z,1.78
2023-12-08T11:21:55.127Z,1.83
2023-12-08T11:24:23.908Z,1.76
2023-12-08T11:26:56.180Z,1.79
2023-12-08T11:29:31.849Z,1.81
2023-12-08T11:32:08.531Z,1.86
2023-12-08T11:34:40.027Z,1.83
2023-12-08T11:37:10.965Z,1.79
2023-12-08T11:39:43.963Z,1.88
2023-12-08T11:42:13.520Z,1.84
2023-12-08T11:44:44.452Z,1.86
2023-12-08T11:47:16.895Z,1.88
2023-12-08T11:49:46.532Z,1.69
2023-12-08T11:52:19.973Z,1.76
2023-12-08T11:55:13.467Z,1.75
2023-12-08T11:57:55.264Z,1.80
2023-12-08T12:00:25.815Z,1.83
2023-12-08T12:02:55.741Z,1.70
2023-12-08T12:05:24.500Z,1.83
2023-12-08T12:07:56.021Z,1.83
2023-12-08T12:10:26.948Z,1.69
2023-12-08T12:12:57.852Z,1.81
2023-12-08T12:15:27.245Z,1.72
2023-12-08T12:17:55.906Z,1.92
2023-12-08T12:20:24.405Z,1.94
2023-12-08T12:22:52.322Z,1.99
2023-12-08T12:25:21.935Z,2.07
2023-12-08T12:27:50.368Z,2.07
2023-12-08T12:30:18.714Z,2.03
2023-12-08T12:32:47.183Z,1.99
2023-12-08T12:35:16.461Z,2.06
2023-12-08T12:37:44.927Z,2.05
2023-12-08T12:40:14.784Z,2.02
2023-12-08T12:42:46.942Z,1.98
2023-12-08T12:45:28.581Z,2.02
2023-12-08T12:48:09.282Z,2.02
2023-12-08T12:50:47.772Z,1.96
2023-12-08T12:53:16.369Z,1.95
2023-12-08T12:55:44.657Z,2.06
2023-12-08T12:58:21.112Z,2.10
2023-12-08T13:00:49.413Z,2.12
2023-12-08T13:03:19.429Z,2.05
2023-12-08T13:05:49.249Z,1.94
2023-12-08T13:08:18.431Z,1.84
2023-12-08T13:10:47.144Z,2.06
2023-12-08T13:13:15.232Z,2.04
2023-12-08T13:15:45.717Z,2.03
2023-12-08T13:18:14.814Z,2.01
2023-12-08T13:20:43.692Z,2.03
2023-12-08T13:23:11.879Z,2.03
2023-12-08T13:25:39.934Z,1.99
2023-12-08T13:28:07.952Z,1.97
2023-12-08T13:30:36.612Z,2.00
2023-12-08T13:33:07.614Z,1.98
2023-12-08T13:35:36.195Z,2.03
2023-12-08T13:38:04.277Z,2.12
2023-12-08T13:40:32.410Z,2.11
2023-12-08T13:43:00.424Z,2.15
2023-12-08T13:45:28.479Z,2.25
2023-12-08T13:47:57.068Z,2.28
2023-12-08T13:50:27.620Z,2.42
2023-12-08T13:52:55.621Z,2.46
2023-12-08T13:55:23.883Z,2.49
2023-12-08T13:57:51.944Z,2.47
2023-12-08T14:00:20.517Z,2.49
2023-12-08T14:02:48.735Z,2.45
2023-12-08T14:05:17.943Z,2.42
2023-12-08T14:07:48.953Z,2.45
2023-12-08T14:10:17.021Z,2.49
2023-12-08T14:12:46.018Z,2.49
2023-12-08T14:15:14.262Z,2.59
2023-12-08T14:17:42.390Z,2.62
2023-12-08T14:20:12.867Z,2.56
2023-12-08T14:22:40.951Z,2.57
2023-12-08T14:25:11.029Z,2.53
2023-12-08T14:27:39.266Z,2.54
2023-12-08T14:30:09.972Z,2.42
2023-12-08T14:32:40.147Z,2.51
2023-12-08T14:35:17.937Z,2.57
2023-12-08T14:40:21.351Z,2.49
2023-12-08T14:42:49.669Z,2.50
2023-12-08T14:45:18.019Z,2.53
2023-12-08T14:47:46.775Z,2.61
2023-12-08T14:50:15.017Z,2.59
2023-12-08T14:52:43.014Z,2.64
2023-12-08T14:55:16.317Z,2.63
2023-12-08T14:57:47.269Z,2.65
2023-12-08T15:00:16.323Z,2.70
2023-12-08T15:02:45.719Z,2.72
2023-12-08T15:05:14.087Z,2.67
2023-12-08T15:07:42.665Z,2.70
2023-12-08T15:10:11.613Z,2.68
2023-12-08T15:12:39.773Z,2.80
2023-12-08T15:18:20.487Z,2.72
2023-12-08T15:20:55.307Z,2.72
2023-12-08T15:23:25.015Z,2.65
2023-12-08T15:25:57.187Z,2.75
2023-12-08T15:28:25.372Z,2.74
2023-12-08T15:31:37.913Z,2.69
2023-12-08T15:34:07.396Z,2.76
2023-12-08T15:36:35.796Z,2.71
2023-12-08T15:39:04.296Z,2.67
2023-12-08T15:41:32.277Z,2.77
2023-12-08T15:44:00.110Z,2.84
2023-12-08T15:46:27.814Z,2.87
2023-12-08T15:48:55.676Z,2.86
2023-12-08T15:51:25.029Z,2.85
2023-12-08T15:53:53.240Z,2.87
2023-12-08T15:56:21.037Z,2.83
2023-12-08T15:58:48.940Z,2.90
2023-12-08T16:01:19.924Z,2.84
2023-12-08T16:03:47.829Z,2.86
2023-12-08T16:06:16.056Z,2.71
2023-12-08T16:08:46.040Z,2.79
2023-12-08T16:11:18.222Z,2.88
2023-12-08T16:13:47.379Z,2.86
2023-12-08T16:16:15.432Z,3.00
2023-12-08T16:18:43.546Z,2.96
2023-12-08T16:21:21.680Z,2.96
2023-12-08T16:23:51.042Z,2.89
2023-12-08T16:26:19.201Z,2.88
2023-12-08T16:28:47.569Z,2.97
2023-12-08T16:31:15.574Z,3.06
2023-12-08T16:33:43.508Z,3.04
2023-12-08T16:36:11.467Z,3.16
2023-12-08T16:38:40.198Z,3.21
2023-12-08T16:41:10.413Z,3.25
2023-12-08T16:43:38.240Z,3.30
2023-12-08T16:46:06.284Z,3.32
2023-12-08T16:48:34.391Z,3.31
2023-12-08T16:51:03.287Z,3.34
2023-12-08T16:53:31.444Z,3.36
2023-12-08T16:55:59.298Z,3.32
2023-12-08T16:58:28.526Z,3.35
2023-12-08T17:00:56.329Z,3.39
2023-12-08T17:03:24.264Z,3.39
2023-12-08T17:05:52.164Z,3.38
2023-12-08T17:08:20.422Z,3.46
2023-12-08T17:10:48.429Z,3.46
2023-12-08T17:13:16.300Z,3.49
2023-12-08T17:15:45.938Z,3.51
2023-12-08T17:18:14.279Z,3.45
2023-12-08T17:20:42.246Z,3.41
2023-12-08T17:23:10.408Z,3.44
2023-12-08T17:25:38.231Z,3.54
2023-12-08T17:28:06.705Z,3.33
2023-12-08T17:30:34.759Z,3.37
2023-12-08T17:33:04.162Z,3.42
2023-12-08T17:35:32.104Z,3.44
2023-12-08T17:37:59.921Z,3.37
2023-12-08T17:40:29.861Z,3.39
2023-12-08T17:42:57.816Z,3.45
2023-12-08T17:45:26.169Z,3.44
2023-12-08T17:47:54.182Z,3.45
2023-12-08T17:50:23.559Z,3.47
2023-12-08T17:52:51.449Z,3.39
2023-12-08T17:55:19.368Z,3.47
2023-12-08T17:57:47.230Z,3.52
2023-12-08T18:00:16.882Z,3.54
2023-12-08T18:02:44.961Z,3.51
2023-12-08T18:05:15.169Z,3.49
2023-12-08T18:07:44.626Z,3.50
2023-12-08T18:10:12.528Z,3.43
2023-12-08T18:12:40.710Z,3.35
2023-12-08T18:15:09.289Z,3.34
2023-12-08T18:17:37.179Z,3.50
2023-12-08T18:20:06.331Z,3.69
2023-12-08T18:22:36.944Z,3.74
2023-12-08T18:25:06.833Z,3.76
2023-12-08T18:27:46.618Z,3.89
2023-12-08T18:30:22.816Z,3.95
2023-12-08T18:32:51.037Z,3.98
2023-12-08T18:35:19.825Z,4.00
2023-12-08T18:37:49.018Z,4.02
2023-12-08T18:40:18.537Z,3.97
2023-12-08T18:42:48.429Z,3.94
2023-12-08T18:45:16.701Z,4.02
2023-12-08T18:47:46.914Z,4.05
2023-12-08T18:50:16.103Z,4.12
2023-12-08T18:52:44.027Z,4.10
2023-12-08T18:55:12.438Z,4.10
2023-12-08T18:57:41.582Z,4.13
2023-12-08T19:00:10.592Z,4.12
2023-12-08T19:02:38.501Z,4.12
2023-12-08T19:05:06.695Z,4.18
2023-12-08T19:07:35.500Z,4.21
2023-12-08T19:10:03.304Z,4.24
2023-12-08T19:12:31.459Z,4.21
2023-12-08T19:15:00.766Z,4.29
2023-12-08T19:17:28.736Z,4.29
2023-12-08T19:19:56.541Z,4.36
2023-12-08T19:22:24.669Z,4.35
2023-12-08T19:24:53.186Z,4.16
2023-12-08T19:27:21.135Z,4.35
2023-12-08T19:29:49.027Z,4.45
2023-12-08T19:32:18.777Z,4.51
2023-12-08T19:34:47.925Z,4.54
2023-12-08T19:37:24.212Z,4.68
2023-12-08T19:39:55.584Z,4.70
2023-12-08T19:42:24.866Z,4.80
2023-12-08T19:44:54.454Z,4.83
2023-12-08T19:47:24.138Z,4.88
2023-12-08T19:49:52.177Z,4.78
2023-12-08T19:52:21.696Z,4.71
2023-12-08T19:54:54.841Z,4.67
2023-12-08T19:57:25.247Z,4.69
2023-12-08T19:59:54.689Z,4.70
2023-12-08T20:02:25.688Z,4.75
2023-12-08T20:04:54.105Z,4.87
2023-12-08T20:07:24.505Z,4.95
2023-12-08T20:09:55.131Z,4.98
2023-12-08T20:12:25.543Z,4.96
2023-12-08T20:14:55.005Z,5.03
2023-12-08T20:17:24.464Z,5.08
2023-12-08T20:19:53.563Z,5.13
2023-12-08T20:22:22.789Z,5.17
2023-12-08T20:24:50.893Z,5.01
2023-12-08T20:27:19.347Z,5.12
2023-12-08T20:29:47.496Z,5.05
2023-12-08T20:32:15.360Z,5.25
2023-12-08T20:34:44.687Z,5.24
2023-12-08T20:37:13.962Z,5.28
2023-12-08T20:39:44.004Z,5.23
2023-12-08T20:42:12.354Z,5.21
2023-12-08T20:44:40.347Z,5.23
2023-12-08T20:47:08.153Z,5.16
2023-12-08T20:49:36.124Z,5.15
2023-12-08T20:52:06.658Z,5.37
2023-12-08T20:54:34.731Z,5.25
2023-12-08T20:57:02.739Z,5.19
2023-12-08T20:59:31.108Z,5.18
2023-12-08T21:02:00.013Z,5.35
2023-12-08T21:04:28.388Z,5.35
2023-12-08T21:06:57.482Z,5.33
2023-12-08T21:09:26.926Z,5.49
2023-12-08T21:11:54.976Z,5.41
2023-12-08T21:14:24.162Z,5.47
2023-12-08T21:16:52.286Z,5.56
2023-12-08T21:19:23.537Z,5.59
2023-12-08T21:21:52.289Z,5.63
2023-12-08T21:24:20.730Z,5.65
2023-12-08T21:26:50.422Z,5.56
2023-12-08T21:29:18.535Z,5.55
2023-12-08T21:31:47.500Z,5.60
2023-12-08T21:34:15.883Z,5.56
2023-12-08T21:36:43.884Z,5.60
2023-12-08T21:39:12.397Z,5.74
2023-12-08T21:41:40.416Z,5.93
2023-12-08T21:44:11.016Z,5.90
2023-12-08T21:46:38.832Z,6.00
2023-12-08T21:49:07.113Z,6.05
2023-12-08T21:51:36.862Z,5.91
2023-12-08T21:54:05.051Z,5.80
2023-12-08T21:56:33.151Z,5.77
2023-12-08T21:59:00.994Z,5.76
2023-12-08T22:01:30.233Z,5.70
2023-12-08T22:03:59.097Z,5.72
2023-12-08T22:06:27.688Z,5.81
2023-12-08T22:08:55.626Z,5.76
2023-12-08T22:11:23.588Z,5.78
2023-12-08T22:13:51.590Z,5.87
2023-12-08T22:16:22.955Z,5.94
2023-12-08T22:18:53.130Z,5.87
2023-12-08T22:21:21.811Z,6.02
2023-12-08T22:23:49.855Z,6.01
2023-12-08T22:26:18.168Z,5.91
2023-12-08T22:28:46.336Z,5.92
2023-12-08T22:31:14.761Z,5.97
2023-12-08T22:33:42.777Z,5.99
2023-12-08T22:36:12.302Z,5.97
2023-12-08T22:38:42.462Z,5.99
2023-12-08T22:41:10.506Z,6.06
2023-12-08T22:43:38.481Z,6.09
2023-12-08T22:46:07.015Z,6.20
2023-12-08T22:48:35.045Z,6.17
2023-12-08T22:51:07.794Z,6.26
2023-12-08T22:53:44.052Z,6.09
2023-12-08T22:56:12.568Z,6.15
2023-12-08T22:58:40.991Z,6.18
2023-12-08T23:01:09.334Z,6.19
2023-12-08T23:03:37.582Z,6.07
2023-12-08T23:06:06.372Z,6.13
2023-12-08T23:08:34.416Z,6.15
2023-12-08T23:11:05.281Z,5.90
2023-12-08T23:13:33.340Z,5.91
2023-12-08T23:16:02.334Z,5.91
2023-12-08T23:18:30.268Z,5.77
2023-12-08T23:20:58.917Z,5.77
2023-12-08T23:23:27.040Z,5.92
2023-12-08T23:25:55.331Z,5.91
2023-12-08T23:28:24.479Z,6.01
2023-12-08T23:30:57.878Z,6.12
2023-12-08T23:33:31.406Z,6.17
2023-12-08T23:35:59.612Z,6.18
2023-12-08T23:38:27.695Z,6.21
2023-12-08T23:40:55.738Z,6.08
2023-12-08T23:43:25.222Z,6.04
2023-12-08T23:45:53.175Z,6.06
2023-12-08T23:48:21.414Z,6.08
2023-12-08T23:50:49.596Z,6.10
2023-12-08T23:53:18.707Z,6.11
2023-12-08T23:55:47.232Z,6.14
2023-12-08T23:58:15.304Z,6.16
